Time;durP1;ratioP1;P1;durP2;ratioP2;P2;SDS_P1;SDS_P2;PMS_P1;PMS_P2;Temp;Humidity;BMP_temperature;BMP_pressure;BME280_temperature;BME280_humidity;BME280_pressure;Samples;Min_cycle;Max_cycle;Signal;HPM_P1;HPM_P2
2022/01/15 00:01:41;;;;;;;;;;;;;;;10.55;100.00;103197.72;5075847;28;20281;-52
2022/01/15 00:04:07;;;;;;;88.07;24.43;;;;;;;10.67;100.00;103185.06;5074924;28;19917;-50
2022/01/15 00:06:33;;;;;;;89.97;24.67;;;;;;;10.61;100.00;103189.16;5057889;28;20468;-50
2022/01/15 00:08:58;;;;;;;80.72;22.15;;;;;;;10.58;100.00;103192.97;5040757;28;20048;-48
2022/01/15 00:11:24;;;;;;;87.30;24.50;;;;;;;10.35;100.00;103183.44;5075312;28;20048;-50
2022/01/15 00:13:56;;;;;;;83.72;24.80;;;;;;;10.46;100.00;103183.34;5057711;28;20037;-45
2022/01/15 00:16:33;;;;;;;105.35;27.05;;;;;;;10.32;100.00;103181.88;5075178;28;20044;-46
2022/01/15 00:19:10;;;;;;;88.18;26.33;;;;;;;10.50;100.00;103178.56;5058759;28;20045;-47
2022/01/15 00:21:35;;;;;;;85.85;26.13;;;;;;;10.57;100.00;103174.34;5074862;28;20063;-49
2022/01/15 00:24:02;;;;;;;94.50;26.98;;;;;;;10.61;100.00;103175.78;5040490;28;20465;-47
2022/01/15 00:26:27;;;;;;;95.70;25.63;;;;;;;10.52;100.00;103172.09;5074519;28;20388;-51
2022/01/15 00:28:53;;;;;;;93.73;28.20;;;;;;;10.53;100.00;103172.94;5075061;28;20074;-47
2022/01/15 00:31:18;;;;;;;93.90;26.80;;;;;;;10.59;100.00;103169.69;5056552;28;20500;-45
2022/01/15 00:33:44;;;;;;;96.23;25.27;;;;;;;10.53;100.00;103170.25;5075170;28;20286;-49
2022/01/15 00:36:10;;;;;;;155.60;28.93;;;;;;;10.28;100.00;103164.41;5074828;28;20028;-45
2022/01/15 00:38:35;;;;;;;98.60;26.17;;;;;;;10.34;100.00;103163.84;5074585;28;20748;-45
2022/01/15 00:41:01;;;;;;;95.72;25.55;;;;;;;10.39;100.00;103153.59;5074674;28;20032;-49
2022/01/15 00:43:27;;;;;;;93.28;24.35;;;;;;;10.02;100.00;103149.66;5074562;28;20538;-47
2022/01/15 00:45:55;;;;;;;95.55;25.67;;;;;;;10.06;100.00;103152.94;5074652;28;20127;-48
2022/01/15 00:48:21;;;;;;;92.38;24.25;;;;;;;10.18;100.00;103154.53;5056126;28;20377;-49
2022/01/15 00:50:47;;;;;;;95.82;22.83;;;;;;;10.32;100.00;103137.25;5074434;28;20091;-47
2022/01/15 00:53:12;;;;;;;81.93;23.63;;;;;;;10.38;100.00;103143.88;5023297;28;20037;-45
2022/01/15 00:55:38;;;;;;;86.17;23.43;;;;;;;10.43;100.00;103149.69;5056280;28;20045;-47
2022/01/15 00:58:03;;;;;;;85.60;24.40;;;;;;;10.32;100.00;103144.41;5056337;28;20040;-50
2022/01/15 01:00:29;;;;;;;208.20;27.93;;;;;;;9.84;100.00;103146.78;5055988;28;20040;-43
2022/01/15 01:02:54;;;;;;;147.03;24.70;;;;;;;9.57;100.00;103153.53;5074545;28;20044;-44
2022/01/15 01:05:20;;;;;;;97.95;24.17;;;;;;;10.04;100.00;103137.03;5057008;28;20084;-59
2022/01/15 01:07:47;;;;;;;114.57;26.75;;;;;;;10.24;100.00;103141.59;5074161;28;20040;-60
2022/01/15 01:23:42;;;;;;;94.93;22.25;;;;;;;9.99;100.00;103125.06;5074344;28;20040;-59
2022/01/15 01:26:23;;;;;;;100.60;23.08;;;;;;;9.60;100.00;103126.56;5078140;28;20036;-58
2022/01/15 01:28:58;;;;;;;160.18;23.40;;;;;;;9.13;100.00;103129.66;5064364;28;20040;-60
2022/01/15 01:31:32;;;;;;;104.18;22.38;;;;;;;9.18;100.00;103131.91;5074920;28;20060;-59
2022/01/15 01:34:08;;;;;;;92.57;22.30;;;;;;;9.35;100.00;103132.31;5075399;28;20162;-57
2022/01/15 01:36:57;;;;;;;136.98;23.85;;;;;;;9.35;100.00;103124.31;5077449;28;20039;-59
2022/01/15 01:39:25;;;;;;;94.97;21.17;;;;;;;9.50;100.00;103127.50;5078076;28;20040;-60
2022/01/15 01:42:09;;;;;;;92.40;21.95;;;;;;;9.23;100.00;103121.72;5058940;28;20481;-58
2022/01/15 01:44:40;;;;;;;101.60;21.67;;;;;;;8.99;100.00;103119.28;5075634;28;20049;-59
2022/01/15 01:47:15;;;;;;;85.78;21.70;;;;;;;8.80;100.00;103115.47;5074727;28;20041;-58
2022/01/15 01:49:42;;;;;;;102.70;22.52;;;;;;;8.83;100.00;103117.06;5056007;28;20113;-58
2022/01/15 01:52:07;;;;;;;;;;;;;;;9.23;100.00;103127.06;5055843;28;20136;-60
2022/01/15 01:54:33;;;;;;;82.87;19.93;;;;;;;9.38;100.00;103121.38;5055341;28;20000;-58
2022/01/15 01:56:58;;;;;;;92.87;22.00;;;;;;;9.53;100.00;103106.72;5038618;28;20115;-57
2022/01/15 01:59:24;;;;;;;77.73;20.03;;;;;;;9.36;100.00;103108.16;5055606;28;20620;-57
2022/01/15 02:01:50;;;;;;;83.63;20.15;;;;;;;9.49;100.00;103107.97;5055388;28;20072;-57
2022/01/15 02:04:16;;;;;;;62.63;14.80;;;;;;;9.47;100.00;103096.56;5055530;28;20060;-58
2022/01/15 02:06:41;;;;;;;78.45;20.75;;;;;;;9.53;100.00;103101.38;5055653;28;20049;-57
2022/01/15 02:09:08;;;;;;;76.35;20.20;;;;;;;9.78;100.00;103099.22;5073160;28;20047;-59
2022/01/15 02:11:33;;;;;;;74.72;18.23;;;;;;;9.88;100.00;103100.09;5056977;28;20066;-59
2022/01/15 02:13:59;;;;;;;76.10;19.23;;;;;;;9.93;100.00;103105.03;5074979;28;20086;-58
2022/01/15 02:16:25;;;;;;;82.57;20.25;;;;;;;9.87;100.00;103105.59;5055665;28;20048;-58
2022/01/15 02:18:54;;;;;;;71.93;19.90;;;;;;;9.96;100.00;103090.56;5073221;28;20052;-58
2022/01/15 02:23:50;;;;;;;66.70;19.17;;;;;;;9.46;100.00;103084.19;5073157;28;20033;-59
2022/01/15 02:26:21;;;;;;;74.93;18.45;;;;;;;9.66;100.00;103081.59;5072773;28;20043;-59
2022/01/15 02:29:00;;;;;;;73.15;18.10;;;;;;;9.83;100.00;103088.97;5073570;28;20036;-58
2022/01/15 02:31:29;;;;;;;77.30;19.83;;;;;;;9.88;100.00;103093.91;5051477;28;20120;-58
2022/01/15 02:33:56;;;;;;;87.10;22.38;;;;;;;9.28;100.00;103087.47;5053117;28;20037;-59
2022/01/15 02:36:24;;;;;;;65.85;17.75;;;;;;;8.76;100.00;103095.38;5052635;28;20159;-59
2022/01/15 02:38:50;;;;;;;72.93;18.27;;;;;;;8.87;100.00;103087.28;5052551;28;20115;-57
2022/01/15 02:41:28;;;;;;;56.58;16.33;;;;;;;8.72;100.00;103080.59;5052730;28;20061;-58
2022/01/15 02:43:55;;;;;;;77.72;18.77;;;;;;;8.88;100.00;103075.69;5053471;28;20037;-58
2022/01/15 02:46:46;;;;;;;;;;;;;;;9.11;100.00;103074.69;5051860;28;20052;-57
2022/01/15 02:49:09;;;;;;;66.13;19.67;;;;;;;9.42;100.00;103061.38;5056537;28;19916;-55
2022/01/15 02:51:36;;;;;;;75.53;19.33;;;;;;;9.47;100.00;103056.50;5054941;28;20033;-58
2022/01/15 02:54:02;;;;;;;;;;;;;;;9.29;100.00;103051.75;5056587;28;20037;-57
2022/01/15 02:56:33;;;;;;;71.95;19.25;;;;;;;9.55;100.00;103056.66;5056790;28;20019;-59
2022/01/15 02:58:59;;;;;;;66.65;18.17;;;;;;;9.43;100.00;103058.56;5057103;28;20465;-59
2022/01/15 03:01:25;;;;;;;64.35;18.85;;;;;;;9.57;100.00;103040.47;5055746;28;20120;-59
2022/01/15 03:03:51;;;;;;;66.65;18.33;;;;;;;9.54;100.00;103036.28;5056453;28;20069;-58
2022/01/15 03:06:18;;;;;;;63.90;17.98;;;;;;;9.13;100.00;103035.38;5054798;28;20037;-59
2022/01/15 03:08:46;;;;;;;64.25;18.70;;;;;;;9.15;100.00;103039.59;5056428;28;20048;-59
2022/01/15 03:11:12;;;;;;;64.10;17.77;;;;;;;9.08;100.00;103040.25;5056219;28;20041;-57
2022/01/15 03:13:39;;;;;;;64.60;20.00;;;;;;;9.28;100.00;103028.72;5055699;28;20044;-58
2022/01/15 03:16:10;;;;;;;60.08;16.95;;;;;;;9.09;100.00;103017.91;5055508;28;20044;-57
2022/01/15 03:18:35;;;;;;;57.63;17.42;;;;;;;8.99;100.00;103013.34;5056383;28;20040;-60
2022/01/15 03:21:01;;;;;;;58.93;19.33;;;;;;;8.97;100.00;103015.31;5055947;28;20405;-59
2022/01/15 03:23:28;;;;;;;66.30;18.57;;;;;;;8.96;100.00;103015.47;5055883;28;20112;-60
2022/01/15 03:25:53;;;;;;;61.75;19.10;;;;;;;9.20;100.00;103009.81;5054251;28;20040;-58
2022/01/15 03:28:19;;;;;;;70.47;19.77;;;;;;;9.57;100.00;103008.44;5059406;28;20033;-60
2022/01/15 03:30:45;;;;;;;81.25;22.92;;;;;;;9.25;100.00;103004.94;5066071;28;20053;-60
2022/01/15 03:33:10;;;;;;;78.50;22.27;;;;;;;9.60;100.00;103006.34;5076625;28;20048;-60
2022/01/15 03:35:36;;;;;;;90.90;22.48;;;;;;;9.64;100.00;103004.25;5041344;28;20044;-59
2022/01/15 03:38:03;;;;;;;77.88;21.73;;;;;;;9.59;100.00;102996.63;5075644;28;20036;-59
2022/01/15 03:40:29;;;;;;;77.82;20.33;;;;;;;9.67;100.00;102995.09;5057308;28;20476;-59
2022/01/15 03:42:55;;;;;;;84.65;22.60;;;;;;;9.60;100.00;102989.47;5058042;28;20043;-58
2022/01/15 03:45:21;;;;;;;92.20;23.47;;;;;;;9.54;100.00;102996.22;5077002;28;20045;-59
2022/01/15 03:47:47;;;;;;;79.35;21.90;;;;;;;9.38;100.00;102998.53;5076183;28;20308;-55
2022/01/15 03:50:13;;;;;;;95.10;23.77;;;;;;;8.94;100.00;102993.41;5058101;28;20043;-58
2022/01/15 03:52:39;;;;;;;;;;;;;;;8.85;100.00;102992.34;5059148;28;20105;-58
2022/01/15 03:55:06;;;;;;;85.70;23.20;;;;;;;8.86;100.00;102988.72;5075921;28;19964;-59
2022/01/15 03:57:32;;;;;;;87.68;23.15;;;;;;;8.67;100.00;102982.28;5057984;28;20036;-58
2022/01/15 03:59:58;;;;;;;80.50;21.85;;;;;;;8.46;100.00;102984.91;5074994;28;20487;-58
2022/01/15 04:02:24;;;;;;;85.85;22.63;;;;;;;8.70;100.00;102976.66;5075388;28;20044;-59
2022/01/15 04:04:49;;;;;;;88.20;23.77;;;;;;;8.99;100.00;102978.66;5057706;28;20487;-59
2022/01/15 04:07:15;;;;;;;77.80;19.90;;;;;;;8.94;100.00;102977.38;5075223;28;20036;-59
2022/01/15 04:09:40;;;;;;;89.53;21.97;;;;;;;9.22;100.00;102980.34;5074957;28;20119;-60
2022/01/15 04:12:06;;;;;;;96.93;22.70;;;;;;;9.30;100.00;102970.69;5040236;28;20037;-59
2022/01/15 04:14:32;;;;;;;85.20;24.77;;;;;;;9.11;100.00;102965.25;5056991;28;20851;-60
2022/01/15 04:16:57;;;;;;;91.40;24.20;;;;;;;9.31;100.00;102958.16;5040164;28;20047;-58
2022/01/15 04:19:24;;;;;;;105.47;26.20;;;;;;;9.16;100.00;102957.69;5074405;28;20040;-58
2022/01/15 04:21:49;;;;;;;102.38;24.10;;;;;;;8.92;100.00;102966.84;5074733;28;20033;-60
2022/01/15 04:24:15;;;;;;;98.33;24.13;;;;;;;8.07;100.00;102966.72;5057092;28;20135;-59
2022/01/15 04:26:40;;;;;;;74.60;19.90;;;;;;;8.30;100.00;102958.66;5056838;28;20441;-57
2022/01/15 04:29:06;;;;;;;81.77;20.40;;;;;;;8.77;100.00;102960.16;5074643;28;20052;-58
2022/01/15 04:31:47;;;;;;;77.65;22.15;;;;;;;9.05;100.00;102963.94;5023383;28;20049;-57
2022/01/15 04:34:19;;;;;;;86.00;22.98;;;;;;;8.97;100.00;102956.59;5074211;28;20440;-60
2022/01/15 04:36:45;;;;;;;79.97;23.92;;;;;;;9.34;100.00;102947.19;5074071;28;20131;-60
2022/01/15 04:39:11;;;;;;;77.43;22.20;;;;;;;9.28;100.00;102947.75;5056050;28;20116;-61
2022/01/15 04:41:37;;;;;;;;;;;;;;;9.24;100.00;102954.34;5056931;28;20041;-60
2022/01/15 04:44:05;;;;;;;89.17;23.33;;;;;;;9.39;100.00;102946.81;5056777;28;20331;-59
2022/01/15 04:46:31;;;;;;;81.20;25.38;;;;;;;9.38;100.00;102947.78;5078115;28;20043;-60
2022/01/15 04:48:57;;;;;;;93.15;24.95;;;;;;;8.88;100.00;102952.06;5046484;28;20072;-59
2022/01/15 04:51:22;;;;;;;93.70;24.67;;;;;;;9.04;100.00;102955.13;5056927;28;20072;-58
2022/01/15 04:53:48;;;;;;;72.83;24.10;;;;;;;9.28;100.00;102943.28;5073770;28;20752;-61
2022/01/15 04:56:13;;;;;;;98.87;25.27;;;;;;;9.29;100.00;102949.44;5074119;28;20079;-59
2022/01/15 04:58:39;;;;;;;98.90;26.30;;;;;;;9.17;100.00;102941.53;5074126;28;20048;-58
2022/01/15 05:01:04;;;;;;;89.40;27.10;;;;;;;9.03;100.00;102937.41;5056395;28;20143;-60
2022/01/15 05:03:29;;;;;;;122.93;30.50;;;;;;;8.77;100.00;102938.81;5074134;28;20048;-57
2022/01/15 05:05:55;;;;;;;102.93;27.57;;;;;;;8.82;100.00;102926.75;5039378;28;20480;-60
2022/01/15 05:08:20;;;;;;;149.57;30.83;;;;;;;9.17;100.00;102927.34;5039964;28;20056;-58
2022/01/15 05:10:48;;;;;;;156.13;31.23;;;;;;;8.34;100.00;102920.13;5073859;28;20041;-59
2022/01/15 05:13:14;;;;;;;163.82;30.95;;;;;;;7.77;100.00;102922.16;5072907;28;20047;-58
2022/01/15 05:15:42;;;;;;;127.93;28.70;;;;;;;7.81;100.00;102929.75;5055798;28;20044;-57
2022/01/15 05:18:08;;;;;;;143.07;32.38;;;;;;;7.93;100.00;102929.75;5073747;28;20036;-59
2022/01/15 05:20:34;;;;;;;148.80;28.20;;;;;;;7.97;100.00;102931.19;5055957;28;20131;-56
2022/01/15 05:23:00;;;;;;;128.57;31.95;;;;;;;8.01;100.00;102924.63;5039551;28;20056;-58
2022/01/15 05:25:25;;;;;;;103.07;29.00;;;;;;;8.37;100.00;102919.00;5073422;28;20064;-56
2022/01/15 05:27:51;;;;;;;137.27;29.63;;;;;;;8.62;100.00;102915.13;5055565;28;20301;-59
2022/01/15 05:30:17;;;;;;;144.75;32.22;;;;;;;8.52;100.00;102914.22;5055440;28;20075;-61
2022/01/15 05:32:42;;;;;;;101.85;26.23;;;;;;;8.30;100.00;102900.88;5073910;28;20461;-59
2022/01/15 05:35:09;;;;;;;93.07;25.67;;;;;;;8.73;100.00;102896.38;5074168;28;20392;-58
2022/01/15 05:37:35;;;;;;;88.60;24.58;;;;;;;8.46;100.00;102895.06;5055449;28;20269;-58
2022/01/15 05:40:01;;;;;;;93.65;28.75;;;;;;;8.50;100.00;102894.84;5073296;28;20047;-58
2022/01/15 05:42:26;;;;;;;90.47;25.20;;;;;;;8.88;100.00;102894.22;5055533;28;20041;-59
2022/01/15 05:44:52;;;;;;;119.78;27.38;;;;;;;8.16;100.00;102895.84;5055274;28;20098;-58
2022/01/15 05:47:17;;;;;;;103.40;26.95;;;;;;;8.05;100.00;102899.41;5073240;28;20047;-59
2022/01/15 05:49:44;;;;;;;75.83;23.97;;;;;;;8.38;100.00;102891.34;5073240;28;20068;-58
2022/01/15 05:52:09;;;;;;;90.25;25.08;;;;;;;8.66;100.00;102887.22;5055945;28;20032;-58
2022/01/15 05:54:35;;;;;;;78.30;23.33;;;;;;;8.75;100.00;102888.25;5073203;28;20047;-59
2022/01/15 05:57:00;;;;;;;63.27;20.93;;;;;;;9.14;100.00;102887.56;5039182;28;20049;-58
2022/01/15 05:59:26;;;;;;;97.07;24.90;;;;;;;9.23;100.00;102878.75;5022621;28;20051;-58
2022/01/15 06:01:51;;;;;;;84.63;21.63;;;;;;;8.64;100.00;102875.84;5077170;28;20080;-58
2022/01/15 06:04:17;;;;;;;75.57;21.33;;;;;;;9.17;100.00;102869.47;5077383;28;20529;-59
2022/01/15 06:06:43;;;;;;;73.85;22.42;;;;;;;9.13;100.00;102876.06;5056541;28;20040;-58
2022/01/15 06:09:08;;;;;;;73.47;22.43;;;;;;;9.39;100.00;102872.88;5073542;28;20041;-57
2022/01/15 06:11:34;;;;;;;74.03;19.17;;;;;;;9.50;100.00;102871.06;5039065;28;20072;-58
2022/01/15 06:14:00;;;;;;;91.43;25.27;;;;;;;9.03;100.00;102870.69;5073157;28;20040;-58
2022/01/15 06:16:26;;;;;;;90.22;24.45;;;;;;;9.33;100.00;102868.94;5073805;28;20385;-57
2022/01/15 06:18:52;;;;;;;75.13;23.65;;;;;;;9.31;100.00;102862.88;5073756;28;20044;-59
2022/01/15 06:21:18;;;;;;;95.80;24.13;;;;;;;9.30;100.00;102858.53;5055338;28;20071;-59
2022/01/15 06:23:43;;;;;;;82.47;21.83;;;;;;;9.27;100.00;102856.13;5056889;28;20111;-59
2022/01/15 06:26:09;;;;;;;79.03;21.03;;;;;;;8.76;100.00;102847.25;5042095;28;20540;-57
2022/01/15 06:28:35;;;;;;;103.30;25.08;;;;;;;8.97;100.00;102843.69;5058768;28;20051;-58
2022/01/15 06:31:01;;;;;;;86.50;24.85;;;;;;;9.31;100.00;102848.69;5076878;28;20067;-58
2022/01/15 06:33:26;;;;;;;87.38;24.17;;;;;;;9.41;100.00;102843.34;5058871;28;20041;-57
2022/01/15 06:35:52;;;;;;;99.82;21.35;;;;;;;9.25;100.00;102847.44;5058896;28;20044;-59
2022/01/15 06:38:17;;;;;;;89.13;24.00;;;;;;;9.42;100.00;102837.03;5058996;28;20048;-57
2022/01/15 06:40:43;;;;;;;82.60;22.30;;;;;;;9.26;100.00;102840.25;5058541;28;20447;-57
2022/01/15 06:43:10;;;;;;;65.10;19.38;;;;;;;9.07;100.00;102841.03;5025648;28;20032;-58
2022/01/15 06:45:35;;;;;;;;;;;;;;;8.97;100.00;102836.50;5059610;28;20040;-57
2022/01/15 06:48:02;;;;;;;104.07;23.20;;;;;;;8.92;100.00;102837.91;5059768;28;19970;-59
2022/01/15 06:50:28;;;;;;;;;;;;;;;9.39;100.00;102842.66;5059129;28;20480;-57
2022/01/15 06:52:54;;;;;;;71.63;22.48;;;;;;;9.42;100.00;102843.22;5058443;28;20311;-58
2022/01/15 06:55:21;;;;;;;71.00;22.73;;;;;;;9.48;100.00;102836.50;5058450;28;20038;-58
2022/01/15 06:57:47;;;;;;;91.32;23.63;;;;;;;9.36;100.00;102830.44;5075903;28;20485;-59
2022/01/15 07:00:13;;;;;;;80.70;21.50;;;;;;;9.10;100.00;102830.09;5075879;28;20032;-58
2022/01/15 07:02:39;;;;;;;96.18;24.38;;;;;;;9.06;100.00;102826.00;5076176;28;20041;-59
2022/01/15 07:05:05;;;;;;;;;;;;;;;9.15;100.00;102819.84;5042210;28;20131;-59
2022/01/15 07:07:32;;;;;;;87.60;24.13;;;;;;;9.17;100.00;102809.88;5058469;28;19959;-58
2022/01/15 07:09:57;;;;;;;95.72;24.20;;;;;;;9.45;100.00;102813.56;5041742;28;20048;-59
2022/01/15 07:12:23;;;;;;;110.50;26.13;;;;;;;9.43;100.00;102817.34;5075877;28;20036;-56
2022/01/15 07:14:48;;;;;;;89.13;25.87;;;;;;;9.51;100.00;102816.66;5058095;28;20040;-57
2022/01/15 07:17:14;;;;;;;90.03;26.15;;;;;;;9.42;100.00;102813.00;5075857;28;20040;-58
2022/01/15 07:19:39;;;;;;;95.53;26.27;;;;;;;9.31;100.00;102819.31;5060947;28;20037;-59
2022/01/15 07:22:06;;;;;;;131.20;26.60;;;;;;;8.82;100.00;102816.53;5064645;28;20044;-57
2022/01/15 07:24:32;;;;;;;119.85;24.33;;;;;;;8.89;100.00;102823.00;5079577;28;20776;-57
2022/01/15 07:26:58;;;;;;;129.20;25.67;;;;;;;9.03;100.00;102816.44;5076518;28;20040;-57
2022/01/15 07:29:24;;;;;;;108.18;24.88;;;;;;;9.30;100.00;102822.97;5076059;28;20036;-59
2022/01/15 07:31:52;;;;;;;142.02;27.40;;;;;;;8.89;100.00;102825.69;5075223;28;20393;-57
2022/01/15 07:34:19;;;;;;;164.50;26.75;;;;;;;8.29;100.00;102818.34;5056904;28;20463;-58
2022/01/15 07:36:54;;;;;;;127.95;26.23;;;;;;;8.27;100.00;102814.97;5075885;28;20037;-59
2022/01/15 07:39:20;;;;;;;139.23;25.95;;;;;;;8.23;100.00;102817.06;5041672;28;20035;-59
2022/01/15 07:41:46;;;;;;;160.55;27.88;;;;;;;8.88;100.00;102818.66;5057596;28;20036;-58
2022/01/15 07:44:12;;;;;;;161.88;27.08;;;;;;;8.71;100.00;102828.16;5075669;28;20514;-58
2022/01/15 07:46:38;;;;;;;129.43;25.48;;;;;;;8.62;100.00;102824.44;5041719;28;20040;-59
2022/01/15 07:49:03;;;;;;;217.82;30.83;;;;;;;8.37;100.00;102818.53;5058221;28;20048;-58
2022/01/15 07:51:29;;;;;;;112.95;24.52;;;;;;;8.84;100.00;102817.25;5075590;28;20105;-58
2022/01/15 07:53:55;;;;;;;170.15;28.73;;;;;;;8.91;100.00;102825.56;5041479;28;20088;-57
2022/01/15 07:56:21;;;;;;;147.35;27.20;;;;;;;8.87;100.00;102816.97;5057692;28;20115;-60
2022/01/15 07:58:46;;;;;;;133.23;26.83;;;;;;;8.96;100.00;102810.81;5040938;28;20044;-57
2022/01/15 08:01:13;;;;;;;155.00;28.10;;;;;;;8.57;100.00;102810.69;5075237;28;20388;-58
2022/01/15 08:03:38;;;;;;;161.27;27.75;;;;;;;8.25;100.00;102820.44;5057849;28;20729;-59
2022/01/15 08:06:06;;;;;;;114.82;23.05;;;;;;;8.21;100.00;102804.84;5057636;28;20047;-57
2022/01/15 08:08:33;;;;;;;217.27;30.95;;;;;;;8.40;100.00;102812.94;5056980;28;20130;-57
2022/01/15 08:10:58;;;;;;;117.40;25.38;;;;;;;8.41;100.00;102808.44;5075045;28;20091;-60
2022/01/15 08:13:25;;;;;;;113.47;23.88;;;;;;;7.80;100.00;102816.19;5074727;28;20074;-60
2022/01/15 08:15:52;;;;;;;122.28;26.17;;;;;;;8.31;100.00;102816.41;5057595;28;20131;-58
2022/01/15 08:18:21;;;;;;;110.57;25.23;;;;;;;8.25;100.00;102800.91;5057592;28;20040;-57
2022/01/15 08:20:47;;;;;;;114.40;25.65;;;;;;;8.51;100.00;102803.19;5056898;28;20036;-58
2022/01/15 08:23:13;;;;;;;115.88;25.38;;;;;;;8.67;100.00;102816.06;5040520;28;20037;-58
2022/01/15 08:25:38;;;;;;;160.30;26.60;;;;;;;8.51;100.00;102814.72;5057039;28;20028;-57
2022/01/15 08:28:04;;;;;;;143.77;27.70;;;;;;;8.81;100.00;102812.19;5040379;28;20120;-55
2022/01/15 08:30:30;;;;;;;146.77;27.07;;;;;;;8.30;100.00;102804.91;5074295;28;20408;-59
2022/01/15 08:32:55;;;;;;;178.05;27.73;;;;;;;9.03;100.00;102811.97;5074487;28;20036;-57
2022/01/15 08:35:21;;;;;;;194.67;29.73;;;;;;;8.70;100.00;102816.63;5056102;28;20052;-57
2022/01/15 08:37:46;;;;;;;175.38;30.13;;;;;;;8.85;100.00;102816.25;5057680;28;20123;-58
2022/01/15 08:40:15;;;;;;;148.35;30.10;;;;;;;8.81;100.00;102817.50;5041930;28;20135;-58
2022/01/15 08:42:41;;;;;;;232.70;32.05;;;;;;;7.90;100.00;102813.59;5074832;28;20036;-58
2022/01/15 08:45:09;;;;;;;190.32;27.02;;;;;;;7.91;100.00;102825.94;5057821;28;20048;-59
2022/01/15 08:47:35;;;;;;;171.45;31.55;;;;;;;8.19;100.00;102826.31;5039903;28;20041;-58
2022/01/15 08:50:01;;;;;;;243.60;34.22;;;;;;;8.00;100.00;102813.66;5056582;28;20458;-59
2022/01/15 08:52:27;;;;;;;214.02;29.10;;;;;;;7.99;100.00;102809.31;5039789;28;20105;-56
2022/01/15 08:54:53;;;;;;;195.05;30.42;;;;;;;8.44;100.00;102806.38;5056109;28;20040;-58
2022/01/15 08:57:18;;;;;;;174.70;30.15;;;;;;;8.29;100.00;102811.19;5073779;28;20037;-56
2022/01/15 08:59:44;;;;;;;134.80;26.77;;;;;;;8.34;100.00;102797.47;5073757;28;20083;-59
2022/01/15 09:02:11;;;;;;;143.60;31.15;;;;;;;8.58;100.00;102813.19;5039311;28;20033;-57
2022/01/15 09:04:37;;;;;;;175.82;31.10;;;;;;;8.41;100.00;102821.78;5056165;28;20047;-59
2022/01/15 09:07:03;;;;;;;140.85;28.58;;;;;;;8.35;100.00;102812.50;5074271;28;20040;-58
2022/01/15 09:09:28;;;;;;;249.95;36.15;;;;;;;8.04;100.00;102821.28;5073605;28;20113;-58
2022/01/15 09:11:54;;;;;;;238.50;34.10;;;;;;;8.00;100.00;102808.34;5055616;28;20445;-58
2022/01/15 09:14:20;;;;;;;339.88;43.13;;;;;;;7.95;100.00;102799.91;5055735;28;20281;-58
2022/01/15 09:16:45;;;;;;;177.77;32.97;;;;;;;8.23;100.00;102789.56;5073706;28;20052;-58
2022/01/15 09:19:11;;;;;;;267.70;34.40;;;;;;;8.00;100.00;102795.03;5073373;28;20040;-58
2022/01/15 09:21:37;;;;;;;244.68;31.88;;;;;;;8.00;100.00;102787.03;5073409;28;20041;-59
2022/01/15 09:24:02;;;;;;;181.35;32.95;;;;;;;8.13;100.00;102789.50;5055987;28;20033;-58
2022/01/15 09:27:01;;;;;;;162.27;30.98;;;;;;;8.65;100.00;102792.19;5073450;28;20427;-58
2022/01/15 09:32:20;;;;;;;136.98;27.50;;;;;;;8.99;100.00;102789.19;4972416;28;20038;-58
2022/01/15 09:34:45;;;;;;;180.50;32.37;;;;;;;8.92;100.00;102777.38;4956371;28;20505;-59
2022/01/15 09:37:11;;;;;;;143.47;29.77;;;;;;;9.02;100.00;102778.25;5018479;28;20060;-59
2022/01/15 09:39:36;;;;;;;170.90;33.20;;;;;;;8.54;100.00;102777.09;5055210;28;20102;-59
2022/01/15 09:42:03;;;;;;;269.87;36.80;;;;;;;7.98;100.00;102773.84;5073701;28;20024;-58
2022/01/15 09:44:29;;;;;;;;;;;;;;;7.94;100.00;102771.56;5073922;28;20068;-58
2022/01/15 09:46:54;;;;;;;303.03;35.83;;;;;;;7.71;100.00;102766.38;5055463;28;19958;-57
2022/01/15 09:49:23;;;;;;;157.85;24.27;;;;;;;7.92;100.00;102765.53;5039270;28;20059;-60
2022/01/15 09:51:49;;;;;;;195.00;26.90;;;;;;;8.03;100.00;102768.97;5073221;28;20032;-59
2022/01/15 09:54:17;;;;;;;169.98;24.42;;;;;;;8.17;100.00;102766.94;5073511;28;20040;-58
2022/01/15 09:56:43;;;;;;;179.98;27.13;;;;;;;8.16;100.00;102771.44;5055648;28;20072;-58
2022/01/15 09:59:10;;;;;;;154.87;23.97;;;;;;;8.02;100.00;102766.44;5076946;28;20036;-58
2022/01/15 10:01:35;;;;;;;153.90;24.48;;;;;;;7.85;100.00;102762.53;5059663;28;20044;-58
2022/01/15 10:04:01;;;;;;;94.90;22.67;;;;;;;7.92;100.00;102762.88;5077844;28;20056;-59
2022/01/15 10:06:27;;;;;;;187.27;29.67;;;;;;;7.96;100.00;102765.16;5059179;28;20539;-58
2022/01/15 10:09:05;;;;;;;157.98;25.83;;;;;;;8.13;100.00;102771.69;5059122;28;20284;-58
2022/01/15 10:11:51;;;;;;;129.82;25.67;;;;;;;8.29;100.00;102781.03;5059871;28;20047;-58
2022/01/15 10:14:34;;;;;;;120.55;23.45;;;;;;;8.01;100.00;102768.25;5059923;28;20372;-59
2022/01/15 10:17:02;;;;;;;128.20;25.88;;;;;;;8.85;100.00;102781.56;5059899;28;20044;-59
2022/01/15 10:19:37;;;;;;;136.73;27.00;;;;;;;8.49;100.00;102786.44;5077310;28;20047;-59
2022/01/15 10:22:23;;;;;;;164.32;30.58;;;;;;;8.42;100.00;102778.13;5076659;28;20066;-58
2022/01/15 10:24:52;;;;;;;119.28;26.10;;;;;;;8.35;100.00;102785.84;5077671;28;20040;-59
2022/01/15 10:27:24;;;;;;;148.40;25.83;;;;;;;8.66;100.00;102777.84;5076783;28;20096;-57
2022/01/15 10:29:56;;;;;;;120.72;27.40;;;;;;;8.94;100.00;102779.91;5077100;28;20044;-58
2022/01/15 10:32:24;;;;;;;205.98;30.17;;;;;;;8.45;100.00;102778.72;5073599;28;20040;-58
2022/01/15 10:34:50;;;;;;;130.02;26.48;;;;;;;8.31;100.00;102781.75;5076541;28;20397;-60
2022/01/15 10:37:20;;;;;;;140.80;28.73;;;;;;;7.87;100.00;102779.22;5042813;28;20079;-58
2022/01/15 10:39:55;;;;;;;116.35;25.42;;;;;;;8.31;100.00;102779.91;5076758;28;20426;-57
2022/01/15 10:42:23;;;;;;;116.35;26.02;;;;;;;8.66;100.00;102771.69;5059177;28;20041;-57
2022/01/15 10:44:51;;;;;;;129.00;27.85;;;;;;;8.55;100.00;102776.13;5076360;28;20496;-59
2022/01/15 10:47:18;;;;;;;169.45;27.70;;;;;;;7.96;100.00;102772.28;5076896;28;20385;-56
2022/01/15 10:49:44;;;;;;;131.00;23.77;;;;;;;7.81;100.00;102761.94;5076058;28;20043;-56
2022/01/15 10:52:10;;;;;;;;;;;;;;;7.57;100.00;102764.88;5058566;28;20477;-59
2022/01/15 10:54:49;;;;;;;155.53;27.77;;;;;;;7.67;100.00;102762.28;5075638;28;19908;-56
2022/01/15 10:57:14;;;;;;;119.60;24.90;;;;;;;7.59;100.00;102762.91;5058755;28;20060;-56
2022/01/15 11:00:14;;;;;;;148.57;29.75;;;;;;;7.89;100.00;102747.97;5058536;28;20510;-57
2022/01/15 11:02:41;;;;;;;127.03;28.92;;;;;;;7.94;100.00;102744.94;5057462;28;20110;-57
2022/01/15 11:05:24;;;;;;;139.90;31.80;;;;;;;7.72;100.00;102752.91;5059048;28;20131;-55
2022/01/15 11:07:51;;;;;;;188.07;34.63;;;;;;;7.50;100.00;102755.72;5058844;28;20193;-58
2022/01/15 11:10:17;;;;;;;133.90;30.30;;;;;;;7.96;100.00;102741.16;5075939;28;20086;-57
2022/01/15 11:12:42;;;;;;;150.70;30.77;;;;;;;8.25;100.00;102728.94;5076149;28;20285;-57
2022/01/15 11:15:08;;;;;;;117.00;28.57;;;;;;;8.66;100.00;102729.00;5076332;28;20387;-55
2022/01/15 11:17:34;;;;;;;122.97;31.58;;;;;;;8.86;100.00;102729.91;5079715;28;20285;-58
2022/01/15 11:20:05;;;;;;;114.88;30.88;;;;;;;8.98;100.00;102728.78;5046226;28;20044;-57
2022/01/15 11:22:33;;;;;;;120.60;32.88;;;;;;;8.90;100.00;102733.97;5077826;28;20115;-57
2022/01/15 11:24:59;;;;;;;145.93;34.22;;;;;;;8.85;100.00;102733.53;5042105;28;20465;-58
2022/01/15 11:27:29;;;;;;;114.03;31.55;;;;;;;9.14;100.00;102732.75;5058185;28;20481;-59